EBCI - Charleroi/Gosselies, Belgium
Distance de la station: NE 18km
Mise à jour: 07/08/2020 13:20
clair
clair
 Wind from ENE
Vent: ENE 9 km/h
Température: 32°C
Point de rosée: 11°C
Humidité: 27%
Baromètre: 1020 hPa
Résumé: clair
Visibilité: greater than 10 km
2020/08/07 11:20 EBCI 071120Z 07005KT 010V130 CAVOK 32/11 Q1020 NOSIG
EBFS - Florennes, Belgium
Distance de la station: ESE 31km
Mise à jour: 07/08/2020 13:25
clair
clair
 Wind from NE
Vent: NE 15 km/h
Température: 30°C
Point de rosée: 12°C
Humidité: 33%
Baromètre: 1020 hPa
Ciel: clair
Visibilité: 10 km
2020/08/07 11:25 EBFS 071125Z 05008KT 9999 SKC 30/12 Q1020 BLU BLU
EBCV - Chievres, Belgium
Distance de la station: NO 40km
Mise à jour: 07/08/2020 13:25
clair
clair
 Wind from ESE
Vent: ESE 9 km/h
Température: 32°C
Point de rosée: 13°C
Humidité: 31%
Baromètre: 1019 hPa
Ciel: clair
Visibilité: 10 km
2020/08/07 11:25 EBCV 071125Z AUTO 11005KT 9999 NCD 32/13 Q1019 BLU
 
EBBE - Beauvechain, Belgium
Distance de la station: NE 57km
Mise à jour: 07/08/2020 13:25
clair
clair
 Wind from E
Vent: E 7 km/h
Température: 32°C
Point de rosée: 12°C
Humidité: 29%
Baromètre: 1019 hPa
Ciel: clair
Visibilité: 10 km
2020/08/07 11:25 EBBE 071125Z 10004KT 9999 SKC 32/12 Q1019 BLU BLU
EBBR - Brussels National, Belgium
Distance de la station: NNE 63km
Mise à jour: 07/08/2020 13:20
clair
clair
 Wind from NNE
Vent: NNE 9 km/h
Température: 33°C
Point de rosée: 12°C
Humidité: 28%
Baromètre: 1020 hPa
Résumé: clair
Visibilité: greater than 10 km
2020/08/07 11:20 EBBR 071120Z 03005KT 330V090 CAVOK 33/12 Q1020 NOSIG
LFQI - Cambrai/Epinoy, France
Distance de la station: O 82km
Mise à jour: 29/06/2012 12:30
NOT Current

 Wind from SO
Vent: SO 17 km/h
Température: 18°C
Point de rosée: 14°C
Humidité: 78%
Baromètre: 1009 hPa
2012/06/29 10:30 LFQI 291030Z AUTO 22009KT //// // ///////// 18/14 Q1009
 
LFQQ - Lille/Lesquin, France
Distance de la station: ONO 86km
Mise à jour: 07/08/2020 13:30
clair
clair
 Wind from E
Vent: E 13 km/h
Température: 33°C
Point de rosée: 12°C
Humidité: 28%
Baromètre: 1018 hPa
Résumé: clair
Visibilité: greater than 10 km
2020/08/07 11:30 LFQQ 071130Z AUTO 10007KT 070V140 CAVOK 33/12 Q1018 NOSIG
EBLG - Bierset/Liege, Belgium
Distance de la station: ENE 89km
Mise à jour: 07/08/2020 13:20
clair
clair
 Wind from NNO
Vent: NNO 9 km/h
Température: 31°C
Point de rosée: 11°C
Humidité: 29%
Baromètre: 1020 hPa
Résumé: clair
Visibilité: greater than 10 km
2020/08/07 11:20 EBLG 071120Z 34005KT 300V080 CAVOK 31/11 Q1020 NOSIG
EBDT - Schaffen, Belgium
Distance de la station: NE 93km
Mise à jour: 07/08/2020 13:25
clair
clair
 Wind from SSE
Vent: SSE 7 km/h
Température: 32°C
Point de rosée: 13°C
Humidité: 31%
Baromètre: 1019 hPa
Ciel: clair
Visibilité: 10 km
2020/08/07 11:25 EBDT 071125Z AUTO 15004KT 9999 NCD 32/13 Q1019 BLU
 
EBAW - Antwerp/Deurne, Belgium
Distance de la station: N 96km
Mise à jour: 07/08/2020 13:20
clair
clair
 Wind from varies
Vent: varies 6 km/h
Température: 32°C
Point de rosée: 12°C
Humidité: 29%
Baromètre: 1019 hPa
Résumé: clair
Visibilité: greater than 10 km
2020/08/07 11:20 EBAW 071120Z VRB03KT CAVOK 32/12 Q1019 NOSIG
LFAQ - Bray, France
Distance de la station: OSO 119km
Mise à jour: 07/08/2020 13:30
clair
clair
 Wind from ESE
Vent: ESE 17 km/h
Température: 32°C
Point de rosée: 15°C
Humidité: 36%
Baromètre: 1019 hPa
Résumé: clair
Visibilité: greater than 10 km
2020/08/07 11:30 LFAQ 071130Z AUTO 11009KT 080V140 CAVOK 32/15 Q1019 NOSIG
LFSR - Reims/Champagne, France
Distance de la station: S 120km
Mise à jour: 16/04/2012 09:00
NOT Current
partiellement nuageux
partiellement nuageux
 Wind from N
Vent: N 17 km/h
Température: 4°C
Température ressentie: 0°C
Point de rosée: 0°C
Humidité: 75%
Baromètre: 1022 hPa
Ciel: partiellement nuageux
Visibilité: 10 km
2012/04/16 07:00 LFSR 160700Z AUTO 01009KT 340V070 9999 NSC 04/00 Q1022
 
EHWO - Woensdrecht, Netherlands
Distance de la station: N 122km
Mise à jour: 07/08/2020 13:34
clair
clair
 Wind from varies
Vent: varies 9 km/h
Température: 32°C
Point de rosée: 14°C
Humidité: 33%
Baromètre: 1019 hPa
Ciel: clair
Visibilité: 10 km
2020/08/07 11:34 EHWO 071134Z AUTO VRB05KT 9999 NCD 32/14 Q1019 BLU NOSIG
EHBK - Zuid-Limburg, Netherlands
Distance de la station: ENE 123km
Mise à jour: 07/08/2020 13:25
clair
clair
 Wind from varies
Vent: varies 7 km/h
Température: 32°C
Point de rosée: 11°C
Humidité: 27%
Baromètre: 1020 hPa
Ciel: clair
Visibilité: 10 km
2020/08/07 11:25 EHBK 071125Z AUTO VRB04KT 9999 NCD 32/11 Q1020 NOSIG
EBBL - Kleine-Brogel, Belgium
Distance de la station: NE 124km
Mise à jour: 07/08/2020 13:25
clair
clair
 Wind from N
Vent: N 6 km/h
Température: 33°C
Point de rosée: 11°C
Humidité: 26%
Baromètre: 1019 hPa
Ciel: clair
Visibilité: 10 km
2020/08/07 11:25 EBBL 071125Z 36003KT 9999 SKC 33/11 Q1019 BLU BLU
 
EBLB - Elsenborn, Belgium
Distance de la station: E 135km
Mise à jour: 07/08/2020 13:25
clair
clair
 Wind from SO
Vent: SO 6 km/h
Température: 28°C
Point de rosée: 11°C
Humidité: 35%
Baromètre: 1022 hPa
Ciel: clair
Visibilité: 10 km
2020/08/07 11:25 EBLB 071125Z AUTO 22003KT 9999 NCD 28/11 Q1022 BLU
EBOS - Oostende Airport, Belgium
Distance de la station: NO 136km
Mise à jour: 07/08/2020 13:20
clair
clair
 Wind from varies
Vent: varies 7 km/h
Température: 32°C
Point de rosée: 14°C
Humidité: 33%
Baromètre: 1019 hPa
Résumé: clair
Visibilité: greater than 10 km
2020/08/07 11:20 EBOS 071120Z VRB04KT CAVOK 32/14 Q1019 NOSIG
EBFN - Koksijde, Belgium
Distance de la station: NO 140km
Mise à jour: 07/08/2020 13:25
clair
clair
 Wind from SE
Vent: SE 7 km/h
Température: 33°C
Point de rosée: 15°C
Humidité: 34%
Baromètre: 1018 hPa
Ciel: clair
Visibilité: 10 km
2020/08/07 11:25 EBFN 071125Z 13004KT 9999 SKC 33/15 Q1018 BLU BLU
 
ETNG - Geilenkirchen, Germany
Distance de la station: ENE 142km
Mise à jour: 07/08/2020 13:50
clair
clair
 Wind from ENE
Vent: ENE 17 km/h
Température: 33°C
Point de rosée: 13°C
Humidité: 30%
Baromètre: 1019 hPa
Résumé: clair
Visibilité: greater than 10 km
2020/08/07 11:50 ETNG 071150Z 07009KT CAVOK 33/13 Q1019 NOSIG
EHGR - Gilze-Rijen, Netherlands
Distance de la station: NNE 143km
Mise à jour: 07/08/2020 13:25
clair
clair
 Wind from SSE
Vent: SSE 11 km/h
Température: 33°C
Point de rosée: 11°C
Humidité: 26%
Baromètre: 1019 hPa
Ciel: clair
Visibilité: 10 km
2020/08/07 11:25 EHGR 071125Z AUTO 15006KT 080V210 9999 NCD 33/11 Q1019 BLU NOSIG
EHEH - Eindhoven, Netherlands
Distance de la station: NNE 147km
Mise à jour: 07/08/2020 13:25
clair
clair
 Wind from varies
Vent: varies 11 km/h
Température: 33°C
Point de rosée: 12°C
Humidité: 28%
Baromètre: 1019 hPa
Ciel: clair
Visibilité: 10 km
2020/08/07 11:25 EHEH 071125Z AUTO VRB06KT 9999 NCD 33/12 Q1019 BLU NOSIG
 
ELLX - Luxembourg, Luxembourg
Distance de la station: ESE 162km
Mise à jour: 07/08/2020 13:20
clair
clair
 Wind from ESE
Vent: ESE 11 km/h
Température: 30°C
Point de rosée: 13°C
Humidité: 35%
Baromètre: 1021 hPa
Résumé: clair
Visibilité: greater than 10 km
2020/08/07 11:20 ELLX 071120Z 11006KT 040V180 CAVOK 30/13 Q1021 NOSIG
EHVK - Volkel, Netherlands
Distance de la station: NE 174km
Mise à jour: 07/08/2020 13:25
clair
clair
 Wind from SE
Vent: SE 9 km/h
Température: 33°C
Point de rosée: 12°C
Humidité: 28%
Baromètre: 1019 hPa
Ciel: clair
Visibilité: 10 km
2020/08/07 11:25 EHVK 071125Z AUTO 13005KT 120V250 9999 NCD 33/12 Q1019 BLU NOSIG
LFOK - Chalons/Vatry, France
Distance de la station: S 174km
Mise à jour: 07/08/2020 13:30
clair
clair
 Wind from ENE
Vent: ENE 17 km/h
Température: 32°C
Point de rosée: 15°C
Humidité: 36%
Baromètre: 1019 hPa
Résumé: clair
Visibilité: greater than 10 km
2020/08/07 11:30 LFOK 071130Z AUTO 07009KT 050V120 CAVOK 32/15 Q1019 NOSIG
Script from Saratoga-Weather.org